Aviation Digital Data Service (ADDS)

Output produced by METARs form (0453 UTC 23 February 2017)
found at http://aviationweather.gov/adds/metars/
 
KATL 230352Z 2304/2406 08009KT P6SM BKN020 BKN250 
     FM230600 07006KT P6SM SCT006 BKN015 
     FM230900 08006KT 4SM BR OVC005 
     FM231500 10006KT P6SM OVC008 
     FM231700 10007KT P6SM BKN015 
     FM231900 10007KT P6SM SCT040 
     FM240000 12005KT P6SM FEW250